createdAt,value
2023-03-05T00:01:35.578Z,4.17
2023-03-05T00:03:30.730Z,3.93
2023-03-05T00:05:25.856Z,3.00
2023-03-05T00:07:21.153Z,4.97
2023-03-05T00:09:16.147Z,3.67
2023-03-05T00:11:13.838Z,4.33
2023-03-05T00:13:11.331Z,3.23
2023-03-05T00:15:07.335Z,3.13
2023-03-05T00:17:02.260Z,3.77
2023-03-05T00:18:58.530Z,3.30
2023-03-05T00:20:53.629Z,3.40
2023-03-05T00:22:48.626Z,3.80
2023-03-05T00:24:43.917Z,3.53
2023-03-05T00:26:40.194Z,3.50
2023-03-05T00:28:38.020Z,4.00
2023-03-05T00:30:33.455Z,2.60
2023-03-05T00:32:28.827Z,3.33
2023-03-05T00:34:25.840Z,4.03
2023-03-05T00:36:21.173Z,3.10
2023-03-05T00:38:16.490Z,3.23
2023-03-05T00:40:13.430Z,3.67
2023-03-05T00:42:09.408Z,3.30
2023-03-05T00:44:08.122Z,2.87
2023-03-05T00:46:03.166Z,5.53
2023-03-05T00:47:58.468Z,4.77
2023-03-05T00:49:53.417Z,3.47
2023-03-05T00:51:48.663Z,3.67
2023-03-05T00:53:43.613Z,2.70
2023-03-05T00:55:38.875Z,2.73
2023-03-05T00:57:33.833Z,4.50
2023-03-05T00:59:31.679Z,3.50
2023-03-05T01:01:28.419Z,3.40
2023-03-05T01:03:23.732Z,3.33
2023-03-05T01:05:18.708Z,4.63
2023-03-05T01:07:14.049Z,3.60
2023-03-05T01:09:08.995Z,2.80
2023-03-05T01:11:04.848Z,3.63
2023-03-05T01:13:00.326Z,3.33
2023-03-05T01:14:58.901Z,3.17
2023-03-05T01:16:53.977Z,3.10
2023-03-05T01:18:49.504Z,2.93
2023-03-05T01:20:44.595Z,3.57
2023-03-05T01:22:39.846Z,2.20
2023-03-05T01:24:37.642Z,2.17
2023-03-05T01:26:33.201Z,2.83
2023-03-05T01:28:28.627Z,2.70
2023-03-05T01:30:26.565Z,2.70
2023-03-05T01:32:21.694Z,3.93
2023-03-05T01:34:18.086Z,2.37
2023-03-05T01:36:16.907Z,3.03
2023-03-05T01:38:12.181Z,1.87
2023-03-05T01:40:08.186Z,2.33
2023-03-05T01:42:03.409Z,2.37
2023-03-05T01:43:58.557Z,2.43
2023-03-05T01:46:28.376Z,2.77
2023-03-05T01:48:23.357Z,2.33
2023-03-05T01:50:22.664Z,2.10
2023-03-05T01:52:20.483Z,2.03
2023-03-05T01:54:20.210Z,2.20
2023-03-05T01:56:15.466Z,2.77
2023-03-05T01:58:14.320Z,1.90
2023-03-05T02:00:15.655Z,3.07
2023-03-05T02:02:13.602Z,2.07
2023-03-05T02:04:10.379Z,2.37
2023-03-05T02:06:05.944Z,1.90
2023-03-05T02:08:01.779Z,2.17
2023-03-05T02:09:57.036Z,2.77
2023-03-05T02:11:52.174Z,1.90
2023-03-05T02:13:47.510Z,1.70
2023-03-05T02:15:42.919Z,1.70
2023-03-05T02:17:40.881Z,2.17
2023-03-05T02:20:00.525Z,1.60
2023-03-05T02:21:58.544Z,2.30
2023-03-05T02:23:53.731Z,1.73
2023-03-05T02:25:49.097Z,1.60
2023-03-05T02:27:47.268Z,2.70
2023-03-05T02:29:49.584Z,1.57
2023-03-05T02:31:44.557Z,3.03
2023-03-05T02:33:41.802Z,2.20
2023-03-05T02:35:36.948Z,2.00
2023-03-05T02:37:39.781Z,1.60
2023-03-05T02:39:37.956Z,1.77
2023-03-05T02:41:34.115Z,1.57
2023-03-05T02:43:29.430Z,1.73
2023-03-05T02:45:25.268Z,1.97
2023-03-05T02:47:21.198Z,1.50
2023-03-05T02:49:17.037Z,1.83
2023-03-05T02:51:12.130Z,1.70
2023-03-05T02:53:10.146Z,1.93
2023-03-05T02:55:05.151Z,1.77
2023-03-05T02:57:00.395Z,1.67
2023-03-05T02:59:09.526Z,1.80
2023-03-05T03:01:05.037Z,1.70
2023-03-05T03:03:00.173Z,1.63
2023-03-05T03:04:55.918Z,1.90
2023-03-05T03:06:50.963Z,1.90
2023-03-05T03:08:50.973Z,1.70
2023-03-05T03:10:50.150Z,2.23
2023-03-05T03:12:48.527Z,1.67
2023-03-05T03:14:45.480Z,1.50
2023-03-05T03:16:42.772Z,1.83
2023-03-05T03:18:37.846Z,1.90
2023-03-05T03:20:36.134Z,1.43
2023-03-05T03:22:50.253Z,1.70
2023-03-05T03:24:48.144Z,1.30
2023-03-05T03:26:43.007Z,1.27
2023-03-05T03:28:38.257Z,1.30
2023-03-05T03:30:33.307Z,1.57
2023-03-05T03:32:28.628Z,1.80
2023-03-05T03:34:23.892Z,1.50
2023-03-05T03:36:19.315Z,1.57
2023-03-05T03:38:14.611Z,1.53
2023-03-05T03:40:14.793Z,1.73
2023-03-05T03:42:10.222Z,2.60
2023-03-05T03:44:08.737Z,2.03
2023-03-05T03:46:03.780Z,1.87
2023-03-05T03:47:59.047Z,1.80
2023-03-05T03:49:57.143Z,2.10
2023-03-05T03:51:54.217Z,2.23
2023-03-05T03:53:49.171Z,2.20
2023-03-05T03:55:47.697Z,2.33
2023-03-05T03:57:43.532Z,3.53
2023-03-05T03:59:38.912Z,1.90
2023-03-05T04:01:33.995Z,1.67
2023-03-05T04:03:29.268Z,1.57
2023-03-05T04:05:24.281Z,2.00
2023-03-05T04:07:19.801Z,1.60
2023-03-05T04:09:15.085Z,1.03
2023-03-05T04:11:13.000Z,1.57
2023-03-05T04:13:08.021Z,2.20
2023-03-05T04:15:03.488Z,0.83
2023-03-05T04:16:58.432Z,2.40
2023-03-05T04:18:53.732Z,1.60
2023-03-05T04:20:48.688Z,1.20
2023-03-05T04:22:45.721Z,1.10
2023-03-05T04:24:40.988Z,1.70
2023-03-05T04:26:38.958Z,1.43
2023-03-05T04:28:33.996Z,1.70
2023-03-05T04:30:29.288Z,2.10
2023-03-05T04:32:24.271Z,1.70
2023-03-05T04:34:19.544Z,1.67
2023-03-05T04:36:14.611Z,2.13
2023-03-05T04:38:10.091Z,1.70
2023-03-05T04:40:05.249Z,2.10
2023-03-05T04:42:03.130Z,1.67
2023-03-05T04:43:58.138Z,1.83
2023-03-05T04:45:53.416Z,1.80
2023-03-05T04:47:48.509Z,2.00
2023-03-05T04:49:44.107Z,1.67
2023-03-05T04:51:39.332Z,1.63
2023-03-05T04:53:35.347Z,1.47
2023-03-05T04:55:30.620Z,1.83
2023-03-05T04:57:28.539Z,1.40
2023-03-05T04:59:23.455Z,1.93
2023-03-05T05:01:18.847Z,1.50
2023-03-05T05:03:13.940Z,1.53
2023-03-05T05:05:09.656Z,1.13
2023-03-05T05:07:04.858Z,1.77
2023-03-05T05:09:00.205Z,2.07
2023-03-05T05:11:03.269Z,0.80
2023-03-05T05:13:01.173Z,2.20
2023-03-05T05:14:56.093Z,2.10
2023-03-05T05:16:51.399Z,1.80
2023-03-05T05:18:46.363Z,1.80
2023-03-05T05:20:41.769Z,1.37
2023-03-05T05:22:37.218Z,1.53
2023-03-05T05:24:32.492Z,1.87
2023-03-05T05:26:27.765Z,1.80
2023-03-05T05:28:25.589Z,1.83
2023-03-05T05:30:20.553Z,1.83
2023-03-05T05:32:15.906Z,1.53
2023-03-05T05:34:10.911Z,1.50
2023-03-05T05:36:07.154Z,1.10
2023-03-05T05:38:02.147Z,2.43
2023-03-05T05:39:57.490Z,1.73
2023-03-05T05:41:54.002Z,1.83
2023-03-05T05:43:52.181Z,1.57
2023-03-05T05:45:47.529Z,2.00
2023-03-05T05:47:42.825Z,1.87
2023-03-05T05:49:37.728Z,2.30
2023-03-05T05:51:32.969Z,2.33
2023-03-05T05:53:28.492Z,1.60
2023-03-05T05:55:23.988Z,2.20
2023-03-05T05:57:18.998Z,2.13
2023-03-05T05:59:16.872Z,2.03
2023-03-05T06:01:16.728Z,2.40
2023-03-05T06:03:12.060Z,2.10
2023-03-05T06:05:07.948Z,1.93
2023-03-05T06:07:03.600Z,1.90
2023-03-05T06:08:59.116Z,2.00
2023-03-05T06:10:57.854Z,2.07
2023-03-05T06:12:52.834Z,1.83
2023-03-05T06:14:50.739Z,2.13
2023-03-05T06:16:46.069Z,1.60
2023-03-05T06:18:41.441Z,2.50
2023-03-05T06:20:36.376Z,1.87
2023-03-05T06:22:31.637Z,1.90
2023-03-05T06:24:26.632Z,2.03
2023-03-05T06:26:24.383Z,1.90
2023-03-05T06:28:19.472Z,2.00
2023-03-05T06:30:20.741Z,1.70
2023-03-05T06:32:19.261Z,1.70
2023-03-05T06:34:16.106Z,1.73
2023-03-05T06:36:13.835Z,1.70
2023-03-05T06:38:09.705Z,2.13
2023-03-05T06:40:05.595Z,1.40
2023-03-05T06:42:00.977Z,2.00
2023-03-05T06:43:57.058Z,1.60
2023-03-05T06:46:04.667Z,1.83
2023-03-05T06:47:59.614Z,2.20
2023-03-05T06:49:55.511Z,1.93
2023-03-05T06:51:50.472Z,1.03
2023-03-05T06:53:48.984Z,1.80
2023-03-05T06:55:44.560Z,2.07
2023-03-05T06:57:40.093Z,2.13
2023-03-05T06:59:35.370Z,1.70
2023-03-05T07:01:33.512Z,1.83
2023-03-05T07:03:28.942Z,1.43
2023-03-05T07:05:24.300Z,1.30
2023-03-05T07:07:20.125Z,1.63
2023-03-05T07:09:17.884Z,1.20
2023-03-05T07:11:14.825Z,2.17
2023-03-05T07:13:10.504Z,2.87
2023-03-05T07:15:06.167Z,1.60
2023-03-05T07:17:04.331Z,2.70
2023-03-05T07:19:00.848Z,1.70
2023-03-05T07:20:56.499Z,1.73
2023-03-05T07:22:51.728Z,1.50
2023-03-05T07:24:47.320Z,1.77
2023-03-05T07:26:42.816Z,2.17
2023-03-05T07:28:38.412Z,1.60
2023-03-05T07:30:33.638Z,1.60
2023-03-05T07:32:31.326Z,2.03
2023-03-05T07:34:27.336Z,2.33
2023-03-05T07:36:23.016Z,1.43
2023-03-05T07:38:18.247Z,2.00
2023-03-05T07:40:14.519Z,1.17
2023-03-05T07:42:10.169Z,1.73
2023-03-05T07:44:05.345Z,1.77
2023-03-05T07:46:00.828Z,1.50
2023-03-05T07:47:58.834Z,1.57
2023-03-05T07:49:54.134Z,1.50
2023-03-05T07:51:49.112Z,1.63
2023-03-05T07:53:44.754Z,1.37
2023-03-05T07:55:45.202Z,1.77
2023-03-05T07:57:40.819Z,1.77
2023-03-05T07:59:35.965Z,1.47
2023-03-05T08:01:31.663Z,5.50
2023-03-05T08:03:29.352Z,1.37
2023-03-05T08:05:24.701Z,1.63
2023-03-05T08:07:20.059Z,1.30
2023-03-05T08:09:15.869Z,1.73
2023-03-05T08:11:12.805Z,1.30
2023-03-05T08:13:08.639Z,2.53
2023-03-05T08:15:03.738Z,1.73
2023-03-05T08:16:58.993Z,1.40
2023-03-05T08:18:57.944Z,1.20
2023-03-05T08:20:53.294Z,1.47
2023-03-05T08:22:48.848Z,1.53
2023-03-05T08:24:44.100Z,1.60
2023-03-05T08:26:40.539Z,1.40
2023-03-05T08:28:35.843Z,2.00
2023-03-05T08:30:30.858Z,1.60
2023-03-05T08:32:26.278Z,1.60
2023-03-05T08:34:24.151Z,2.00
2023-03-05T08:36:19.848Z,1.93
2023-03-05T08:38:14.834Z,1.80
2023-03-05T08:40:11.787Z,1.70
2023-03-05T08:42:09.029Z,1.60
2023-03-05T08:44:27.015Z,1.50
2023-03-05T08:46:22.411Z,1.30
2023-03-05T08:48:18.025Z,1.50
2023-03-05T08:50:15.914Z,1.60
2023-03-05T08:52:11.209Z,1.37
2023-03-05T08:54:07.573Z,1.57
2023-03-05T08:56:03.782Z,1.40
2023-03-05T08:57:58.714Z,1.30
2023-03-05T08:59:54.002Z,1.60
2023-03-05T09:01:49.044Z,1.40
2023-03-05T09:03:44.764Z,1.33
2023-03-05T09:05:42.380Z,1.67
2023-03-05T09:07:37.936Z,0.90
2023-03-05T09:09:33.033Z,1.30
2023-03-05T09:11:28.527Z,2.77
2023-03-05T09:13:23.545Z,1.63
2023-03-05T09:15:19.287Z,1.50
2023-03-05T09:17:14.232Z,1.30
2023-03-05T09:19:10.698Z,1.60
2023-03-05T09:21:11.206Z,1.10
2023-03-05T09:23:07.673Z,1.37
2023-03-05T09:25:02.591Z,1.23
2023-03-05T09:27:01.975Z,1.40
2023-03-05T09:28:57.338Z,1.03
2023-03-05T09:30:53.001Z,1.10
2023-03-05T09:32:48.294Z,3.97
2023-03-05T09:34:44.122Z,1.47
2023-03-05T09:36:42.123Z,1.37
2023-03-05T09:38:51.720Z,1.07
2023-03-05T09:40:56.313Z,1.80
2023-03-05T09:43:05.244Z,1.50
2023-03-05T09:45:18.431Z,1.67
2023-03-05T09:47:33.662Z,1.50
2023-03-05T09:49:41.316Z,1.60
2023-03-05T09:51:43.274Z,1.70
2023-03-05T09:53:45.836Z,1.50
2023-03-05T09:55:45.262Z,1.53
2023-03-05T09:57:47.697Z,1.20
2023-03-05T09:59:53.144Z,1.60
2023-03-05T10:01:58.920Z,1.20
2023-03-05T10:03:59.898Z,1.70
2023-03-05T10:06:11.842Z,1.30
2023-03-05T10:08:12.190Z,1.43
2023-03-05T10:10:14.221Z,1.63
2023-03-05T10:12:17.501Z,1.20
2023-03-05T10:14:17.344Z,1.63
2023-03-05T10:16:36.943Z,2.07
2023-03-05T10:18:40.544Z,1.87
2023-03-05T10:20:49.330Z,1.40
2023-03-05T10:23:08.047Z,1.97
2023-03-05T10:25:22.372Z,1.50
2023-03-05T10:27:23.288Z,1.80
2023-03-05T10:29:38.481Z,1.30
2023-03-05T10:31:45.659Z,1.60
2023-03-05T10:34:23.588Z,1.23
2023-03-05T10:37:02.552Z,1.17
2023-03-05T10:39:39.744Z,1.93
2023-03-05T10:41:53.209Z,1.57
2023-03-05T10:43:55.266Z,1.40
2023-03-05T10:45:56.414Z,1.57
2023-03-05T10:47:58.303Z,1.77
2023-03-05T10:49:55.120Z,1.77
2023-03-05T10:51:55.725Z,1.33
2023-03-05T10:53:56.666Z,1.60
2023-03-05T10:58:29.870Z,1.57
2023-03-05T11:00:28.834Z,1.70
2023-03-05T11:02:26.606Z,1.53
2023-03-05T11:04:35.280Z,1.60
2023-03-05T11:06:33.755Z,1.33
2023-03-05T11:08:34.876Z,1.90
2023-03-05T11:10:29.905Z,1.57
2023-03-05T11:12:30.607Z,1.57
2023-03-05T11:14:33.522Z,3.33
2023-03-05T11:16:31.400Z,3.90
2023-03-05T11:18:32.936Z,2.47
2023-03-05T11:20:42.951Z,2.10
2023-03-05T11:22:38.173Z,1.67
2023-03-05T11:24:35.380Z,1.63
2023-03-05T11:26:30.388Z,1.40
2023-03-05T11:28:33.427Z,1.77
2023-03-05T11:30:35.925Z,3.00
2023-03-05T11:32:34.488Z,2.37
2023-03-05T11:34:35.937Z,1.60
2023-03-05T11:36:34.380Z,2.40
2023-03-05T11:38:35.102Z,1.97
2023-03-05T11:40:35.731Z,1.77
2023-03-05T11:42:31.125Z,1.87
2023-03-05T11:44:29.683Z,1.57
2023-03-05T11:46:29.464Z,1.70
2023-03-05T11:48:35.090Z,2.20
2023-03-05T11:50:32.627Z,1.30
2023-03-05T11:52:36.494Z,1.77
2023-03-05T11:54:39.477Z,1.50
2023-03-05T11:56:39.269Z,1.70
2023-03-05T11:58:46.275Z,2.00
2023-03-05T12:01:14.461Z,2.00
2023-03-05T12:03:19.058Z,2.33
2023-03-05T12:05:18.292Z,1.90
2023-03-05T12:07:20.776Z,1.50
2023-03-05T12:09:26.954Z,1.73
2023-03-05T12:11:26.312Z,1.47
2023-03-05T12:13:30.753Z,1.60
2023-03-05T12:15:41.307Z,1.90
2023-03-05T12:17:43.381Z,2.53
2023-03-05T12:19:53.177Z,1.80
2023-03-05T12:21:53.132Z,1.50
2023-03-05T12:23:53.500Z,1.60
2023-03-05T12:25:51.529Z,1.23
2023-03-05T12:27:47.100Z,1.60
2023-03-05T12:29:45.913Z,1.53
2023-03-05T12:31:44.328Z,2.90
2023-03-05T12:33:41.775Z,2.13
2023-03-05T12:35:43.437Z,2.03
2023-03-05T12:38:26.416Z,1.73
2023-03-05T12:40:26.883Z,1.60
2023-03-05T12:42:54.247Z,2.07
2023-03-05T12:45:19.648Z,2.20
2023-03-05T12:47:23.706Z,1.70
2023-03-05T12:49:31.919Z,1.67
2023-03-05T12:51:40.716Z,1.83
2023-03-05T12:53:35.733Z,1.60
2023-03-05T12:55:35.541Z,1.27
2023-03-05T12:57:32.808Z,1.90
2023-03-05T12:59:35.796Z,1.63
2023-03-05T13:01:38.391Z,1.40
2023-03-05T13:03:39.563Z,1.70
2023-03-05T13:05:38.650Z,1.73
2023-03-05T13:07:33.821Z,1.83
2023-03-05T13:09:31.854Z,1.40
2023-03-05T13:11:31.442Z,1.70
2023-03-05T13:13:28.938Z,2.47
2023-03-05T13:15:25.718Z,2.00
2023-03-05T13:17:39.710Z,1.80
2023-03-05T13:19:37.444Z,2.00
2023-03-05T13:21:35.386Z,1.73
2023-03-05T13:23:32.502Z,1.60
2023-03-05T13:25:27.938Z,1.93
2023-03-05T13:27:23.859Z,1.87
2023-03-05T13:29:21.179Z,1.80
2023-03-05T13:31:18.772Z,1.57
2023-03-05T13:33:21.150Z,1.77
2023-03-05T13:35:19.855Z,2.30
2023-03-05T13:37:20.831Z,1.70
2023-03-05T13:39:22.983Z,1.57
2023-03-05T13:41:24.545Z,1.60
2023-03-05T13:43:22.209Z,1.60
2023-03-05T13:45:29.788Z,1.50
2023-03-05T13:47:28.514Z,1.23
2023-03-05T13:49:26.412Z,1.30
2023-03-05T13:51:24.098Z,1.67
2023-03-05T13:53:25.539Z,2.27
2023-03-05T13:55:21.503Z,2.13
2023-03-05T13:57:36.775Z,1.73
2023-03-05T13:59:34.302Z,1.50
2023-03-05T14:01:36.825Z,1.83
2023-03-05T14:03:34.679Z,1.83
2023-03-05T14:05:31.370Z,1.77
2023-03-05T14:07:35.559Z,1.60
2023-03-05T14:09:33.785Z,1.70
2023-03-05T14:11:29.224Z,1.60
2023-03-05T14:13:27.837Z,1.27
2023-03-05T14:15:25.190Z,1.80
2023-03-05T14:17:25.884Z,1.30
2023-03-05T14:19:39.701Z,1.50
2023-03-05T14:21:49.541Z,1.60
2023-03-05T14:23:48.893Z,1.87
2023-03-05T14:25:44.413Z,1.70
2023-03-05T14:27:41.854Z,1.43
2023-03-05T14:29:37.777Z,1.73
2023-03-05T14:31:48.576Z,1.40
2023-03-05T14:33:43.877Z,1.60
2023-03-05T14:35:40.197Z,1.17
2023-03-05T14:37:38.556Z,1.27
2023-03-05T14:39:46.912Z,1.20
2023-03-05T14:41:44.758Z,1.50
2023-03-05T14:43:39.802Z,1.00
2023-03-05T14:45:37.362Z,1.30
2023-03-05T14:47:32.903Z,1.50
2023-03-05T14:49:28.351Z,1.90
2023-03-05T14:51:23.970Z,1.33
2023-03-05T14:53:22.522Z,1.50
2023-03-05T14:55:22.828Z,1.50
2023-03-05T14:57:21.581Z,1.60
2023-03-05T14:59:16.652Z,1.30
2023-03-05T15:01:13.624Z,1.50
2023-03-05T15:03:09.453Z,1.33
2023-03-05T15:05:04.746Z,1.33
2023-03-05T15:06:59.716Z,1.20
2023-03-05T15:08:55.074Z,1.00
2023-03-05T15:10:52.844Z,1.47
2023-03-05T15:12:50.424Z,1.40
2023-03-05T15:14:45.599Z,1.20
2023-03-05T15:16:43.212Z,4.43
2023-03-05T15:18:38.309Z,1.17
2023-03-05T15:20:34.049Z,1.50
2023-03-05T15:22:29.141Z,1.53
2023-03-05T15:24:24.547Z,1.23
2023-03-05T15:26:22.110Z,1.40
2023-03-05T15:28:18.032Z,1.23
2023-03-05T15:30:30.901Z,1.40
2023-03-05T15:32:27.435Z,1.80
2023-03-05T15:34:22.435Z,1.73
2023-03-05T15:36:17.765Z,1.00
2023-03-05T15:38:12.729Z,1.43
2023-03-05T15:40:09.420Z,1.57
2023-03-05T15:42:15.351Z,1.40
2023-03-05T15:44:11.032Z,1.50
2023-03-05T15:46:08.152Z,1.30
2023-03-05T15:48:04.239Z,1.30
2023-03-05T15:49:59.394Z,1.50
2023-03-05T15:51:55.083Z,1.50
2023-03-05T15:53:50.301Z,1.40
2023-03-05T15:55:47.114Z,1.50
2023-03-05T15:57:46.968Z,1.50
2023-03-05T15:59:42.318Z,1.70
2023-03-05T16:01:37.353Z,1.30
2023-03-05T16:03:32.685Z,1.57
2023-03-05T16:05:27.904Z,2.07
2023-03-05T16:07:23.885Z,1.60
2023-03-05T16:09:20.333Z,8.43
2023-03-05T16:11:16.340Z,1.93
2023-03-05T16:13:16.524Z,1.93
2023-03-05T16:15:13.863Z,2.10
2023-03-05T16:17:09.830Z,2.07
2023-03-05T16:19:05.404Z,2.00
2023-03-05T16:21:00.810Z,1.90
2023-03-05T16:22:56.128Z,1.67
2023-03-05T16:24:51.184Z,1.80
2023-03-05T16:26:46.677Z,1.70
2023-03-05T16:28:44.380Z,1.70
2023-03-05T16:30:40.095Z,1.93
2023-03-05T16:32:35.153Z,1.60
2023-03-05T16:34:30.732Z,1.67
2023-03-05T16:36:28.393Z,1.27
2023-03-05T16:38:23.748Z,1.40
2023-03-05T16:40:18.959Z,1.57
2023-03-05T16:42:14.971Z,1.90
2023-03-05T16:44:12.519Z,1.70
2023-03-05T16:46:08.352Z,2.03
2023-03-05T16:48:03.340Z,1.43
2023-03-05T16:49:59.208Z,1.60
2023-03-05T16:51:54.167Z,2.03
2023-03-05T16:53:50.148Z,1.63
2023-03-05T16:55:45.116Z,1.80
2023-03-05T16:57:41.289Z,3.10
2023-03-05T16:59:39.386Z,1.80
2023-03-05T17:01:35.282Z,1.63
2023-03-05T17:03:31.128Z,1.73
2023-03-05T17:05:28.215Z,1.37
2023-03-05T17:07:23.253Z,2.27
2023-03-05T17:09:23.751Z,1.60
2023-03-05T17:11:19.719Z,2.10
2023-03-05T17:13:15.169Z,2.17
2023-03-05T17:15:13.762Z,2.10
2023-03-05T17:17:09.209Z,1.70
2023-03-05T17:19:04.305Z,1.57
2023-03-05T17:20:59.671Z,1.83
2023-03-05T17:22:54.658Z,1.87
2023-03-05T17:24:50.129Z,2.07
2023-03-05T17:26:45.967Z,1.80
2023-03-05T17:28:42.215Z,2.10
2023-03-05T17:30:39.774Z,14.70
2023-03-05T17:32:35.076Z,2.20
2023-03-05T17:34:37.078Z,1.90
2023-03-05T17:36:32.732Z,2.00
2023-03-05T17:38:28.413Z,1.90
2023-03-05T17:40:25.241Z,2.17
2023-03-05T17:42:20.518Z,1.80
2023-03-05T17:44:15.931Z,2.03
2023-03-05T17:46:14.174Z,2.10
2023-03-05T17:48:10.642Z,1.83
2023-03-05T17:50:07.470Z,2.30
2023-03-05T17:52:03.273Z,2.30
2023-03-05T17:53:58.755Z,2.10
2023-03-05T17:55:54.737Z,1.87
2023-03-05T17:57:54.845Z,2.10
2023-03-05T17:59:50.722Z,2.10
2023-03-05T18:01:50.650Z,2.20
2023-03-05T18:03:48.484Z,2.23
2023-03-05T18:05:43.722Z,2.30
2023-03-05T18:07:43.005Z,2.50
2023-03-05T18:09:38.000Z,3.00
2023-03-05T18:11:33.412Z,3.17
2023-03-05T18:13:28.668Z,2.60
2023-03-05T18:15:26.414Z,3.00
2023-03-05T18:17:25.705Z,4.37
2023-03-05T18:19:22.052Z,3.60
2023-03-05T18:21:22.698Z,4.07
2023-03-05T18:23:18.731Z,5.73
2023-03-05T18:25:15.453Z,4.67
2023-03-05T18:27:11.708Z,3.83
2023-03-05T18:29:06.955Z,3.53
2023-03-05T18:31:02.389Z,3.60
2023-03-05T18:33:00.797Z,3.67
2023-03-05T18:34:57.501Z,3.37
2023-03-05T18:36:52.594Z,3.67
2023-03-05T18:38:48.210Z,4.10
2023-03-05T18:40:52.042Z,2.47
2023-03-05T18:42:47.388Z,3.97
2023-03-05T18:44:42.573Z,3.47
2023-03-05T18:46:38.104Z,4.40
2023-03-05T18:48:36.427Z,4.67
2023-03-05T18:50:32.909Z,4.30
2023-03-05T18:52:27.898Z,3.87
2023-03-05T18:54:23.742Z,3.10
2023-03-05T18:56:20.346Z,4.43
2023-03-05T18:58:17.582Z,3.97
2023-03-05T19:00:16.729Z,4.33
2023-03-05T19:02:16.155Z,4.53
2023-03-05T19:04:14.252Z,3.63
2023-03-05T19:06:10.512Z,4.93
2023-03-05T19:08:06.019Z,5.20
2023-03-05T19:10:03.579Z,4.33
2023-03-05T19:11:58.648Z,4.80
2023-03-05T19:13:58.510Z,4.80
2023-03-05T19:15:56.257Z,4.57
2023-03-05T19:17:56.635Z,3.83
2023-03-05T19:20:01.217Z,5.30
2023-03-05T19:22:01.814Z,4.67
2023-03-05T19:23:58.349Z,3.70
2023-03-05T19:25:56.152Z,4.03
2023-03-05T19:27:56.207Z,4.43
2023-03-05T19:29:56.828Z,4.83
2023-03-05T19:31:51.837Z,4.53
2023-03-05T19:33:51.497Z,4.63
2023-03-05T19:35:51.715Z,4.40
2023-03-05T19:37:50.359Z,4.13
2023-03-05T19:39:47.829Z,4.40
2023-03-05T19:41:43.367Z,4.30
2023-03-05T19:43:41.424Z,6.93
2023-03-05T19:45:37.274Z,4.23
2023-03-05T19:47:35.465Z,4.17
2023-03-05T19:49:33.308Z,3.90
2023-03-05T19:51:33.675Z,4.70
2023-03-05T19:53:29.251Z,4.60
2023-03-05T19:55:24.366Z,5.40
2023-03-05T19:57:23.518Z,4.83
2023-03-05T19:59:22.446Z,4.30
2023-03-05T20:01:20.619Z,5.03
2023-03-05T20:03:15.794Z,5.03
2023-03-05T20:05:12.020Z,4.57
2023-03-05T20:07:10.466Z,5.07
2023-03-05T20:09:07.979Z,4.37
2023-03-05T20:11:03.589Z,4.47
2023-03-05T20:12:59.277Z,4.50
2023-03-05T20:14:56.440Z,19.27
2023-03-05T20:26:11.940Z,4.53
2023-03-05T20:28:10.177Z,4.37
2023-03-05T20:29:45.118Z,4.00
2023-03-05T20:30:05.291Z,4.30
2023-03-05T20:32:00.771Z,4.83
2023-03-05T20:33:56.300Z,4.53
2023-03-05T20:35:53.426Z,4.37
2023-03-05T20:38:12.809Z,4.50
2023-03-05T20:40:10.141Z,4.93
2023-03-05T20:42:05.312Z,4.43
2023-03-05T20:44:03.414Z,4.33
2023-03-05T20:45:59.882Z,3.90
2023-03-05T20:47:54.944Z,4.50
2023-03-05T20:49:50.307Z,4.23
2023-03-05T20:51:45.370Z,4.60
2023-03-05T20:53:40.763Z,4.10
2023-03-05T20:55:35.870Z,4.07
2023-03-05T20:57:31.289Z,4.17
2023-03-05T21:01:55.876Z,4.87
2023-03-05T21:03:53.651Z,4.17
2023-03-05T21:05:49.219Z,4.60
2023-03-05T21:07:44.175Z,4.70
2023-03-05T21:09:39.600Z,5.27
2023-03-05T21:11:35.899Z,5.03
2023-03-05T21:13:31.328Z,4.23
2023-03-05T21:15:28.508Z,4.63
2023-03-05T21:17:26.481Z,6.20
2023-03-05T21:19:21.518Z,5.73
2023-03-05T21:21:19.544Z,4.70
2023-03-05T21:23:43.594Z,5.53
2023-03-05T21:25:44.749Z,4.60
2023-03-05T21:27:43.754Z,5.03
2023-03-05T21:29:39.197Z,5.20
2023-03-05T21:31:34.431Z,5.87
2023-03-05T21:33:33.317Z,6.00
2023-03-05T21:35:28.513Z,5.87
2023-03-05T21:37:27.376Z,6.13
2023-03-05T21:39:24.458Z,6.40
2023-03-05T21:41:23.808Z,5.37
2023-03-05T21:43:24.020Z,5.50
2023-03-05T21:45:31.735Z,5.70
2023-03-05T21:47:40.125Z,5.60
2023-03-05T21:49:41.042Z,5.47
2023-03-05T21:51:46.879Z,5.47
2023-03-05T21:53:45.882Z,5.27
2023-03-05T21:55:47.866Z,6.10
2023-03-05T21:57:43.601Z,5.20
2023-03-05T21:59:41.657Z,5.33
2023-03-05T22:01:37.251Z,5.73
2023-03-05T22:03:33.715Z,6.07
2023-03-05T22:05:34.900Z,6.07
2023-03-05T22:07:31.425Z,5.60
2023-03-05T22:09:27.317Z,5.00
2023-03-05T22:11:23.981Z,5.97
2023-03-05T22:13:24.886Z,6.30
2023-03-05T22:15:23.533Z,5.93
2023-03-05T22:17:22.203Z,5.43
2023-03-05T22:19:19.897Z,6.17
2023-03-05T22:21:22.613Z,6.00
2023-03-05T22:23:44.102Z,6.10
2023-03-05T22:25:42.757Z,5.97
2023-03-05T22:28:24.024Z,5.13
2023-03-05T22:31:06.571Z,5.87
2023-03-05T22:33:06.971Z,5.70
2023-03-05T22:35:42.998Z,6.13
2023-03-05T22:38:21.883Z,5.70
2023-03-05T22:40:19.773Z,5.33
2023-03-05T22:42:50.024Z,6.03
2023-03-05T22:44:58.825Z,6.10
2023-03-05T22:47:19.686Z,6.10
2023-03-05T22:49:46.715Z,6.03
2023-03-05T22:52:05.313Z,5.43
2023-03-05T22:54:03.164Z,5.93
2023-03-05T22:56:18.335Z,6.10
2023-03-05T22:58:44.133Z,5.77
2023-03-05T23:00:51.982Z,6.07
2023-03-05T23:02:55.010Z,6.87
2023-03-05T23:04:57.845Z,6.47
2023-03-05T23:07:10.405Z,6.77
2023-03-05T23:09:08.423Z,6.10
2023-03-05T23:11:04.599Z,6.37
2023-03-05T23:13:02.740Z,6.67
2023-03-05T23:14:58.328Z,6.90
2023-03-05T23:16:54.060Z,5.80
2023-03-05T23:22:16.978Z,6.47
2023-03-05T23:24:31.413Z,6.10
2023-03-05T23:27:12.089Z,5.80
2023-03-05T23:29:41.973Z,5.43
2023-03-05T23:31:46.930Z,5.47
2023-03-05T23:34:22.294Z,4.87
2023-03-05T23:36:33.659Z,5.50
2023-03-05T23:38:58.526Z,5.33
2023-03-05T23:41:07.082Z,4.80
2023-03-05T23:43:13.860Z,5.63
2023-03-05T23:45:19.593Z,5.40
2023-03-05T23:47:35.622Z,4.97
2023-03-05T23:49:59.628Z,4.60
2023-03-05T23:51:57.296Z,5.03
2023-03-05T23:53:52.905Z,4.47
2023-03-05T23:55:48.289Z,5.03
2023-03-05T23:57:52.967Z,5.10
2023-03-05T23:59:48.262Z,4.97
